CheckWX is a tool to help pilots better visualize weather data.  It is not intended as a substitute for an official pre-flight weather briefing.

07:43:48 UTC

CYMA METAR
Mayo Airport
Mayo, Canada
Current

44 mins ago

CYMA 210700Z 02003KT 20SM BKN100 BKN210 15/02 A2978 RMK AC6CI1 SLP094 DENSITY ALT 2300FT
Observed
May-21 @ 07:00 UTC
Wind
  • 020° at 3 KTS
Visibility
20 SM
Flight Rules
VFR
Cloud Levels
  • Broken at 10,000' AGL
  • Broken at 21,000' AGL
Temperature
15°C / 59°F
Dewpoint
C / 36°F
Humidity
42%
Altimeter
29.78" Hg
Pressure
1008.42 hPa
Previous

2 hours ago

CYMA 210600Z 07006KT 20SM BKN100 BKN210 19/01 A2977 RMK AC6CI1 CLIMAT 24.4/19.4/0.0 SLP087 DENSITY ALT 2800FT
Observed
May-21 @ 06:00 UTC
Wind
  • 070° at 6 KTS
Visibility
20 SM
Flight Rules
VFR
Cloud Levels
  • Broken at 10,000' AGL
  • Broken at 21,000' AGL
Temperature
19°C / 66°F
Dewpoint
C / 34°F
Humidity
30%
Altimeter
29.77" Hg
Pressure
1008.12 hPa
Previous

3 hours ago

CYMA 210500Z 12004KT 20SM FEW065TCU BKN100 OVC210 21/01 A2976 RMK TCU2AC4CI2 SLP083 DENSITY ALT 3000FT
Observed
May-21 @ 05:00 UTC
Wind
  • 120° at 4 KTS
Visibility
20 SM
Flight Rules
VFR
Cloud Levels
  • Few at 6,500' AGL
  • Broken at 10,000' AGL
  • Overcast at 21,000' AGL
Temperature
21°C / 70°F
Dewpoint
C / 34°F
Humidity
27%
Altimeter
29.76" Hg
Pressure
1007.82 hPa